Terminal Aerodrome Forecast
Issued by NWS Tampa Bay Area, FL

Home | Current Version | Previous Version | Text Only | Print | Product List | Glossary On
Versions: 1 2 3 4 5 6 7 8 9 10 11 12 13 14 15
000
FTUS42 KTBW 312349
TAFSRQ
TAF
KSRQ 312349Z 0100/0124 29011G18KT 6SM SHRA SCT025 BKN050 BKN100
      TEMPO 0100/0102 4SM SHRA BKN020
     FM010400 23008KT P6SM VCSH SCT020 SCT100 BKN150
     FM011300 21012KT P6SM VCSH SCT025 SCT100 BKN150
     FM011600 22014G19KT P6SM VCSH SCT030 BKN100 BKN150=

USA.gov is the U.S. government's official web portal to all federal, state and local government web resources and services.